Archival Weather

Snohomish County (Paine Fld)

Everett, Washington (KPAE)

Report from: Tuesday, November 7, 2023 9:53 AM PST
Current time: Sunday, June 16, 2024 11:35 PM PDT

Current weather – Weather history – Daily summaries
Weather forecast

Temperature10.0°C (50.0°F)
Wind chill9.6°C (49.3°F)
Dew point6.1°C (43.0°F)
Winds 3 kts (1.5 m/s, 3.5 mph) North (350°)
Visibility10 mi. (16.1 km)
Clouds Few clouds 1,200 ft. (366 m)
Ceiling: Broken clouds 2,300 ft. (701 m)
Altimeter30.03 in.Hg (1017 mB)
Precip last 3 hours0.10 in. (3 mm)
Relative humidity77 %
Density altitude-588 ft. (-179 m)
Sea-level pressure101.7 kPa (1017 mB, 30.03 in.Hg)
Max temp last 6 hours10.6°C (51.1°F)
Min temp last 6 hours9.4°C (48.9°F)
Remarks Automated weather observing station with precipitation discriminator
Pressure rising more slowly
Flight conditions Marginal Visual Meteorological Conditions
Raw dataKPAE 071753Z 35003KT 10SM FEW012 BKN023 10/06 A3003 RMK AO2 SLP170 60010 T01000061 10106 20094 51038
An error has occurred. This application may no longer respond until reloaded. Reload 🗙